Time;durP1;ratioP1;P1;durP2;ratioP2;P2;SDS_P1;SDS_P2;PMS_P1;PMS_P2;Temp;Humidity;BMP_temperature;BMP_pressure;BME280_temperature;BME280_humidity;BME280_pressure;Samples;Min_cycle;Max_cycle;Signal;HPM_P1;HPM_P2
2023/07/15 00:00:44;;;;;;;4.53;2.10;;;;;;;;;;6309851;28;20235;-72
2023/07/15 00:03:50;;;;;;;17.95;2.60;;;;;;;;;;6310013;28;20235;-70
2023/07/15 00:06:54;;;;;;;20.00;2.55;;;;;;;;;;6309489;28;20246;-71
2023/07/15 00:09:58;;;;;;;15.90;2.10;;;;;;;;;;6309967;28;20231;-71
2023/07/15 00:13:03;;;;;;;17.02;2.22;;;;;;;;;;6310659;28;20271;-70
2023/07/15 00:16:08;;;;;;;4.43;1.70;;;;;;;;;;6314331;28;20238;-70
2023/07/15 00:19:14;;;;;;;8.85;2.17;;;;;;;;;;6339207;28;20522;-70
2023/07/15 00:22:18;;;;;;;7.30;2.25;;;;;;;;;;6338991;28;20246;-70
2023/07/15 00:25:22;;;;;;;12.68;2.03;;;;;;;;;;6338766;28;20530;-70
2023/07/15 00:28:26;;;;;;;26.00;2.97;;;;;;;;;;6339157;28;20410;-70
2023/07/15 00:31:31;;;;;;;12.00;2.40;;;;;;;;;;6354111;28;20475;-69
2023/07/15 00:34:37;;;;;;;12.63;2.63;;;;;;;;;;6339096;28;20259;-70
2023/07/15 00:37:41;;;;;;;8.27;3.22;;;;;;;;;;6353652;28;20291;-71
2023/07/15 00:40:46;;;;;;;7.90;2.97;;;;;;;;;;6338546;28;20257;-70
2023/07/15 00:43:58;;;;;;;13.50;3.10;;;;;;;;;;6354012;28;20270;-70
2023/07/15 00:47:21;;;;;;;11.73;3.83;;;;;;;;;;6320425;28;20274;-70
2023/07/15 00:50:28;;;;;;;7.10;3.30;;;;;;;;;;6353827;28;20430;-70
2023/07/15 00:53:32;;;;;;;4.35;2.83;;;;;;;;;;6338400;28;20258;-70
2023/07/15 00:56:37;;;;;;;3.05;2.65;;;;;;;;;;6353419;28;20274;-70
2023/07/15 00:59:42;;;;;;;2.72;2.25;;;;;;;;;;6353845;28;20550;-71
2023/07/15 01:02:46;;;;;;;2.53;2.05;;;;;;;;;;6338113;28;20530;-70
2023/07/15 01:05:52;;;;;;;6.80;1.70;;;;;;;;;;6320185;28;20265;-70
2023/07/15 01:08:56;;;;;;;4.95;2.00;;;;;;;;;;6341733;28;20354;-70
2023/07/15 01:12:01;;;;;;;20.02;2.83;;;;;;;;;;6353500;28;20289;-71
2023/07/15 01:15:06;;;;;;;6.88;2.90;;;;;;;;;;6337895;28;20246;-70
2023/07/15 01:18:11;;;;;;;28.33;3.28;;;;;;;;;;6337511;28;20234;-71
2023/07/15 01:21:18;;;;;;;8.95;2.83;;;;;;;;;;6337840;28;20337;-70
2023/07/15 01:24:25;;;;;;;15.70;2.70;;;;;;;;;;6337061;28;20238;-72
2023/07/15 01:27:30;;;;;;;17.35;3.25;;;;;;;;;;6353027;28;20273;-71
2023/07/15 01:30:35;;;;;;;21.73;3.00;;;;;;;;;;6337614;28;20238;-71
2023/07/15 01:33:39;;;;;;;17.80;6.45;;;;;;;;;;6337472;28;20266;-71
2023/07/15 01:36:43;;;;;;;7.65;4.43;;;;;;;;;;6352273;28;20301;-71
2023/07/15 01:39:49;;;;;;;13.35;3.80;;;;;;;;;;6353060;28;20289;-70
2023/07/15 01:42:53;;;;;;;13.27;3.85;;;;;;;;;;6337778;28;20234;-70
2023/07/15 01:45:58;;;;;;;16.70;4.43;;;;;;;;;;6336804;28;20435;-71
2023/07/15 01:49:03;;;;;;;9.60;4.07;;;;;;;;;;6354271;28;20274;-71
2023/07/15 01:52:08;;;;;;;9.38;3.75;;;;;;;;;;6352284;28;20285;-69
2023/07/15 01:55:14;;;;;;;12.13;3.70;;;;;;;;;;6352053;28;20270;-73
2023/07/15 01:58:19;;;;;;;12.50;3.65;;;;;;;;;;6352445;28;20278;-71
2023/07/15 02:01:23;;;;;;;6.25;3.40;;;;;;;;;;6351979;28;20270;-71
2023/07/15 02:04:28;;;;;;;2.33;2.22;;;;;;;;;;6351787;28;20282;-70
2023/07/15 02:07:34;;;;;;;1.90;1.90;;;;;;;;;;6318127;28;20269;-70
2023/07/15 02:10:39;;;;;;;6.55;1.45;;;;;;;;;;6336785;28;20250;-70
2023/07/15 02:13:44;;;;;;;1.70;1.70;;;;;;;;;;6336690;28;20566;-71
2023/07/15 02:16:48;;;;;;;1.85;1.70;;;;;;;;;;6351726;28;20380;-69
2023/07/15 02:19:54;;;;;;;1.92;1.83;;;;;;;;;;6336988;28;20230;-70
2023/07/15 02:22:58;;;;;;;2.25;1.98;;;;;;;;;;6336800;28;20243;-70
2023/07/15 02:26:04;;;;;;;2.67;1.77;;;;;;;;;;6336392;28;20415;-70
2023/07/15 02:29:09;;;;;;;1.95;1.75;;;;;;;;;;6336342;28;20234;-72
2023/07/15 02:32:15;;;;;;;1.77;1.63;;;;;;;;;;6336143;28;20233;-72
2023/07/15 02:35:19;;;;;;;2.00;1.90;;;;;;;;;;6335074;28;20281;-71
2023/07/15 02:38:23;;;;;;;2.95;1.90;;;;;;;;;;6336338;28;20242;-71
2023/07/15 02:41:29;;;;;;;3.60;1.80;;;;;;;;;;6336162;28;20238;-71
2023/07/15 02:44:33;;;;;;;4.82;1.63;;;;;;;;;;6350689;28;20461;-71
2023/07/15 02:47:39;;;;;;;5.07;2.00;;;;;;;;;;6350835;28;20281;-71
2023/07/15 02:50:44;;;;;;;2.80;2.45;;;;;;;;;;6351127;28;20266;-72
2023/07/15 02:53:48;;;;;;;3.65;2.28;;;;;;;;;;6335947;28;20263;-71
2023/07/15 02:56:55;;;;;;;17.85;2.95;;;;;;;;;;6335719;28;20414;-70
2023/07/15 03:00:00;;;;;;;6.70;2.45;;;;;;;;;;6335241;28;20241;-70
2023/07/15 03:03:07;;;;;;;7.25;2.58;;;;;;;;;;6350772;28;20273;-71
2023/07/15 03:06:12;;;;;;;3.55;2.70;;;;;;;;;;6351342;28;20270;-70
2023/07/15 03:09:16;;;;;;;5.72;3.10;;;;;;;;;;6335565;28;20527;-70
2023/07/15 03:12:22;;;;;;;5.30;3.30;;;;;;;;;;6335697;28;20242;-71
2023/07/15 03:15:27;;;;;;;3.05;2.85;;;;;;;;;;6316939;28;20266;-71
2023/07/15 03:18:32;;;;;;;2.45;2.35;;;;;;;;;;6351022;28;20278;-71
2023/07/15 03:21:39;;;;;;;1.85;1.80;;;;;;;;;;6316949;28;20551;-70
2023/07/15 03:24:44;;;;;;;2.42;1.60;;;;;;;;;;6317166;28;20274;-71
2023/07/15 03:27:51;;;;;;;2.08;1.90;;;;;;;;;;6335512;28;20525;-70
2023/07/15 03:30:55;;;;;;;2.97;1.85;;;;;;;;;;6317119;28;20274;-70
2023/07/15 03:33:59;;;;;;;1.90;1.80;;;;;;;;;;6335094;28;20307;-69
2023/07/15 03:37:04;;;;;;;1.90;1.80;;;;;;;;;;6315668;28;20586;-70
2023/07/15 03:40:10;;;;;;;2.03;1.85;;;;;;;;;;6291858;28;20270;-70
2023/07/15 03:43:17;;;;;;;2.53;2.00;;;;;;;;;;6292398;28;20264;-73
2023/07/15 03:46:21;;;;;;;1.95;1.90;;;;;;;;;;6310378;28;20235;-70
2023/07/15 03:49:25;;;;;;;2.63;1.80;;;;;;;;;;6315123;28;20242;-71
2023/07/15 03:52:29;;;;;;;1.98;1.88;;;;;;;;;;6314868;28;20240;-70
2023/07/15 03:55:37;;;;;;;2.20;2.10;;;;;;;;;;6314635;28;20551;-70
2023/07/15 03:58:42;;;;;;;2.20;2.10;;;;;;;;;;6314221;28;20239;-70
2023/07/15 04:01:47;;;;;;;2.45;1.95;;;;;;;;;;6314415;28;20242;-70
2023/07/15 04:04:52;;;;;;;2.05;1.95;;;;;;;;;;6296504;28;20278;-70
2023/07/15 04:07:56;;;;;;;2.22;2.17;;;;;;;;;;6327787;28;20261;-70
2023/07/15 04:11:00;;;;;;;2.33;2.03;;;;;;;;;;6339152;28;20243;-70
2023/07/15 04:14:06;;;;;;;3.22;2.30;;;;;;;;;;6339505;28;20542;-70
2023/07/15 04:17:10;;;;;;;1.88;1.88;;;;;;;;;;6340341;28;20358;-70
2023/07/15 04:20:17;;;;;;;2.72;2.63;;;;;;;;;;6338786;28;20244;-71
2023/07/15 04:23:21;;;;;;;2.50;2.30;;;;;;;;;;6339235;28;20234;-71
2023/07/15 04:26:27;;;;;;;3.38;2.83;;;;;;;;;;6339020;28;20417;-71
2023/07/15 04:29:32;;;;;;;2.70;2.22;;;;;;;;;;6338749;28;20234;-70
2023/07/15 04:32:37;;;;;;;2.03;2.00;;;;;;;;;;6338404;28;20247;-69
2023/07/15 04:35:41;;;;;;;2.20;2.00;;;;;;;;;;6338249;28;20293;-70
2023/07/15 04:38:45;;;;;;;1.90;1.80;;;;;;;;;;6338457;28;20238;-70
2023/07/15 04:41:49;;;;;;;2.20;2.03;;;;;;;;;;6353590;28;20534;-70
2023/07/15 04:44:55;;;;;;;2.38;2.20;;;;;;;;;;6338514;28;20238;-71
2023/07/15 04:47:59;;;;;;;4.00;2.28;;;;;;;;;;6337951;28;20466;-69
2023/07/15 04:51:03;;;;;;;3.40;2.08;;;;;;;;;;6337874;28;20265;-71
2023/07/15 04:54:08;;;;;;;5.00;2.20;;;;;;;;;;6338083;28;20258;-69
2023/07/15 04:57:12;;;;;;;2.70;1.90;;;;;;;;;;6337947;28;20439;-70
2023/07/15 05:00:20;;;;;;;2.10;2.00;;;;;;;;;;6337265;28;20230;-70
2023/07/15 05:03:24;;;;;;;2.08;1.90;;;;;;;;;;6338202;28;20238;-70
2023/07/15 05:06:28;;;;;;;2.20;2.00;;;;;;;;;;6337558;28;20436;-69
2023/07/15 05:09:33;;;;;;;3.67;2.25;;;;;;;;;;6337574;28;20262;-69
2023/07/15 05:12:37;;;;;;;2.42;2.25;;;;;;;;;;6337748;28;20491;-69
2023/07/15 05:15:43;;;;;;;2.10;2.10;;;;;;;;;;6337261;28;20270;-69
2023/07/15 05:18:47;;;;;;;2.38;1.90;;;;;;;;;;6337462;28;20265;-71
2023/07/15 05:21:51;;;;;;;2.25;2.15;;;;;;;;;;6337351;28;20482;-69
2023/07/15 05:24:56;;;;;;;2.03;2.00;;;;;;;;;;6337650;28;20400;-69
2023/07/15 05:28:00;;;;;;;1.90;1.80;;;;;;;;;;6337324;28;20242;-71
2023/07/15 05:31:05;;;;;;;2.28;1.98;;;;;;;;;;6337314;28;20234;-70
2023/07/15 05:34:10;;;;;;;3.20;1.80;;;;;;;;;;6336698;28;20278;-70
2023/07/15 05:37:14;;;;;;;2.47;2.00;;;;;;;;;;6337222;28;20286;-70
2023/07/15 05:40:18;;;;;;;2.13;1.83;;;;;;;;;;6337212;28;20242;-70
2023/07/15 05:43:22;;;;;;;2.50;1.70;;;;;;;;;;6336628;28;20318;-70
2023/07/15 05:46:28;;;;;;;1.75;1.75;;;;;;;;;;6336955;28;20309;-70
2023/07/15 05:49:32;;;;;;;1.88;1.80;;;;;;;;;;6336495;28;20238;-70
2023/07/15 05:52:36;;;;;;;1.60;1.50;;;;;;;;;;6336382;28;20234;-70
2023/07/15 05:55:40;;;;;;;1.92;1.83;;;;;;;;;;6336156;28;20266;-71
2023/07/15 05:58:45;;;;;;;2.53;2.10;;;;;;;;;;6336522;28;20230;-70
2023/07/15 06:01:50;;;;;;;1.60;1.60;;;;;;;;;;6335912;28;20238;-71
2023/07/15 06:04:54;;;;;;;2.13;1.90;;;;;;;;;;6336367;28;20258;-70
2023/07/15 06:07:59;;;;;;;1.77;1.67;;;;;;;;;;6336132;28;20246;-70
2023/07/15 06:11:03;;;;;;;2.13;1.80;;;;;;;;;;6335719;28;20230;-70
2023/07/15 06:14:08;;;;;;;1.98;1.80;;;;;;;;;;6335707;28;20515;-70
2023/07/15 06:17:13;;;;;;;2.25;2.15;;;;;;;;;;6335930;28;20238;-70
2023/07/15 06:20:18;;;;;;;1.85;1.85;;;;;;;;;;6335751;28;20258;-72
2023/07/15 06:23:23;;;;;;;2.00;1.90;;;;;;;;;;6335873;28;20238;-70
2023/07/15 06:26:27;;;;;;;1.73;1.73;;;;;;;;;;6335518;28;20250;-70
2023/07/15 06:29:31;;;;;;;1.90;1.80;;;;;;;;;;6335428;28;20242;-70
2023/07/15 06:32:37;;;;;;;2.00;1.90;;;;;;;;;;6335654;28;20233;-70
2023/07/15 06:35:41;;;;;;;2.22;1.77;;;;;;;;;;6334929;28;20489;-70
2023/07/15 06:38:45;;;;;;;2.60;1.70;;;;;;;;;;6335402;28;20417;-70
2023/07/15 06:41:49;;;;;;;2.00;1.80;;;;;;;;;;6335394;28;20506;-70
2023/07/15 06:44:55;;;;;;;1.80;1.80;;;;;;;;;;6335173;28;20550;-70
2023/07/15 06:48:00;;;;;;;2.20;2.10;;;;;;;;;;6335112;28;20241;-72
2023/07/15 06:51:04;;;;;;;1.95;1.80;;;;;;;;;;6335717;28;20238;-69
2023/07/15 06:54:09;;;;;;;2.03;1.85;;;;;;;;;;6335159;28;20242;-70
2023/07/15 06:57:13;;;;;;;3.30;1.95;;;;;;;;;;6335210;28;20257;-70
2023/07/15 07:00:17;;;;;;;1.92;1.90;;;;;;;;;;6335054;28;20554;-70
2023/07/15 07:03:22;;;;;;;1.63;1.63;;;;;;;;;;6335399;28;20238;-70
2023/07/15 07:06:27;;;;;;;3.90;1.90;;;;;;;;;;6350527;28;20486;-70
2023/07/15 07:09:31;;;;;;;1.52;1.50;;;;;;;;;;6334931;28;20234;-70
2023/07/15 07:12:35;;;;;;;3.00;1.80;;;;;;;;;;6334790;28;20247;-70
2023/07/15 07:15:40;;;;;;;2.47;1.80;;;;;;;;;;6334591;28;20266;-70
2023/07/15 07:18:45;;;;;;;1.60;1.60;;;;;;;;;;6335162;28;20253;-70
2023/07/15 07:21:50;;;;;;;1.60;1.60;;;;;;;;;;6335697;28;20471;-71
2023/07/15 07:24:54;;;;;;;2.15;1.90;;;;;;;;;;6340457;28;20238;-70
2023/07/15 07:27:58;;;;;;;2.92;1.92;;;;;;;;;;6339947;28;20247;-70
2023/07/15 07:31:03;;;;;;;1.90;1.80;;;;;;;;;;6339465;28;20437;-70
2023/07/15 07:34:08;;;;;;;5.07;1.70;;;;;;;;;;6339973;28;20254;-71
2023/07/15 07:37:12;;;;;;;1.90;1.90;;;;;;;;;;6339059;28;20301;-70
2023/07/15 07:40:17;;;;;;;3.25;1.65;;;;;;;;;;6339358;28;20227;-70
2023/07/15 07:43:21;;;;;;;1.90;1.80;;;;;;;;;;6339746;28;20515;-71
2023/07/15 07:46:25;;;;;;;2.67;1.85;;;;;;;;;;6339693;28;20241;-69
2023/07/15 07:49:31;;;;;;;2.05;1.80;;;;;;;;;;6339597;28;20239;-72
2023/07/15 07:52:38;;;;;;;2.33;2.20;;;;;;;;;;6339476;28;20247;-72
2023/07/15 07:55:42;;;;;;;1.90;1.70;;;;;;;;;;6339725;28;20262;-71
2023/07/15 07:58:54;;;;;;;1.58;1.58;;;;;;;;;;6339688;28;20242;-76
2023/07/15 08:01:59;;;;;;;5.97;1.65;;;;;;;;;;6339295;28;20243;-71
2023/07/15 08:05:05;;;;;;;2.75;1.70;;;;;;;;;;6338964;28;20242;-70
2023/07/15 08:08:09;;;;;;;1.50;1.50;;;;;;;;;;6339413;28;20242;-70
2023/07/15 08:11:13;;;;;;;1.45;1.45;;;;;;;;;;6338874;28;20250;-71
2023/07/15 08:14:17;;;;;;;1.48;1.45;;;;;;;;;;6339253;28;20242;-71
2023/07/15 08:17:22;;;;;;;2.60;1.92;;;;;;;;;;6338825;28;20566;-70
2023/07/15 08:20:29;;;;;;;2.05;1.45;;;;;;;;;;6338560;28;20290;-70
2023/07/15 08:23:33;;;;;;;1.60;1.50;;;;;;;;;;6339022;28;20258;-71
2023/07/15 08:26:38;;;;;;;1.48;1.38;;;;;;;;;;6338366;28;20242;-71
2023/07/15 08:29:42;;;;;;;1.55;1.50;;;;;;;;;;6338526;28;20238;-71
2023/07/15 08:32:46;;;;;;;1.60;1.20;;;;;;;;;;6338239;28;20246;-71
2023/07/15 08:35:52;;;;;;;1.60;1.50;;;;;;;;;;6337467;28;20289;-74
2023/07/15 08:38:56;;;;;;;1.50;1.50;;;;;;;;;;6338264;28;20246;-71
2023/07/15 08:42:02;;;;;;;1.52;1.42;;;;;;;;;;6338370;28;20231;-70
2023/07/15 08:45:06;;;;;;;3.70;1.58;;;;;;;;;;6338258;28;20247;-71
2023/07/15 08:48:12;;;;;;;1.65;1.40;;;;;;;;;;6338096;28;20239;-71
2023/07/15 08:51:17;;;;;;;1.45;1.45;;;;;;;;;;6337714;28;20242;-70
2023/07/15 08:54:22;;;;;;;1.25;1.25;;;;;;;;;;6338232;28;20432;-71
2023/07/15 08:57:26;;;;;;;13.55;1.45;;;;;;;;;;6337585;28;20258;-71
2023/07/15 09:00:30;;;;;;;1.42;1.42;;;;;;;;;;6337589;28;20243;-71
2023/07/15 09:03:35;;;;;;;2.05;1.27;;;;;;;;;;6337981;28;20253;-72
2023/07/15 09:06:40;;;;;;;2.13;1.20;;;;;;;;;;6337506;28;20242;-70
2023/07/15 09:09:45;;;;;;;1.30;1.30;;;;;;;;;;6337514;28;20242;-70
2023/07/15 09:12:53;;;;;;;1.67;1.60;;;;;;;;;;6337972;28;20310;-70
2023/07/15 09:15:58;;;;;;;2.75;1.50;;;;;;;;;;6319411;28;20282;-71
2023/07/15 09:19:02;;;;;;;1.30;1.30;;;;;;;;;;6337334;28;20238;-71
2023/07/15 09:22:09;;;;;;;1.38;1.13;;;;;;;;;;6337190;28;20242;-71
2023/07/15 09:25:13;;;;;;;2.47;1.35;;;;;;;;;;6337306;28;20230;-70
2023/07/15 09:28:17;;;;;;;1.77;1.67;;;;;;;;;;6337769;28;20507;-70
2023/07/15 09:31:25;;;;;;;1.38;1.30;;;;;;;;;;6337216;28;20273;-73
2023/07/15 09:34:30;;;;;;;2.35;1.20;;;;;;;;;;6337278;28;20239;-70
2023/07/15 09:37:36;;;;;;;1.17;1.17;;;;;;;;;;6336946;28;20278;-71
2023/07/15 09:40:45;;;;;;;1.17;1.17;;;;;;;;;;6337389;28;20251;-71
2023/07/15 09:43:50;;;;;;;1.38;1.27;;;;;;;;;;6337285;28;20234;-70
2023/07/15 09:46:55;;;;;;;1.27;1.27;;;;;;;;;;6336498;28;20249;-71
2023/07/15 09:49:59;;;;;;;1.42;1.33;;;;;;;;;;6337021;28;20238;-72
2023/07/15 09:53:04;;;;;;;3.17;1.35;;;;;;;;;;6336947;28;20238;-71
2023/07/15 09:56:10;;;;;;;1.30;1.20;;;;;;;;;;6318112;28;20546;-72
2023/07/15 09:59:17;;;;;;;1.58;1.30;;;;;;;;;;6336851;28;20247;-70
2023/07/15 10:02:29;;;;;;;7.72;1.25;;;;;;;;;;6336890;28;20528;-70
2023/07/15 10:05:33;;;;;;;1.30;1.30;;;;;;;;;;6336606;28;20234;-71
2023/07/15 10:08:39;;;;;;;1.42;1.42;;;;;;;;;;6336237;28;20337;-71
2023/07/15 10:11:43;;;;;;;1.80;1.50;;;;;;;;;;6336191;28;20251;-72
2023/07/15 10:14:47;;;;;;;1.63;1.30;;;;;;;;;;6335986;28;20247;-71
2023/07/15 10:17:52;;;;;;;2.50;1.25;;;;;;;;;;6335813;28;20262;-70
2023/07/15 10:20:57;;;;;;;1.20;1.20;;;;;;;;;;6335855;28;20417;-72
2023/07/15 10:24:10;;;;;;;1.65;1.65;;;;;;;;;;6336193;28;20241;-70
2023/07/15 10:27:15;;;;;;;1.50;1.23;;;;;;;;;;6335898;28;20242;-70
2023/07/15 10:30:22;;;;;;;1.30;1.30;;;;;;;;;;6335770;28;20242;-71
2023/07/15 10:33:26;;;;;;;4.70;1.45;;;;;;;;;;6335858;28;20238;-71
2023/07/15 10:36:38;;;;;;;1.40;1.40;;;;;;;;;;6335817;28;20293;-72
2023/07/15 10:39:44;;;;;;;1.70;1.60;;;;;;;;;;6335622;28;20231;-71
2023/07/15 10:42:48;;;;;;;1.10;1.10;;;;;;;;;;6335958;28;20238;-71
2023/07/15 10:45:53;;;;;;;1.23;1.20;;;;;;;;;;6335951;28;20422;-71
2023/07/15 10:48:57;;;;;;;1.65;1.33;;;;;;;;;;6335515;28;20429;-72
2023/07/15 10:52:03;;;;;;;1.40;1.30;;;;;;;;;;6335423;28;20237;-72
2023/07/15 10:55:10;;;;;;;1.50;1.40;;;;;;;;;;6335279;28;20258;-71
2023/07/15 10:58:14;;;;;;;1.50;1.50;;;;;;;;;;6334272;28;20257;-70
2023/07/15 11:01:18;;;;;;;1.23;1.23;;;;;;;;;;6335362;28;20246;-70
2023/07/15 11:04:22;;;;;;;1.48;1.38;;;;;;;;;;6335487;28;20255;-71
2023/07/15 11:07:28;;;;;;;3.58;1.75;;;;;;;;;;6335312;28;20241;-71
2023/07/15 11:10:35;;;;;;;4.32;1.50;;;;;;;;;;6334817;28;20242;-70
2023/07/15 11:13:40;;;;;;;1.60;1.60;;;;;;;;;;6334866;28;20238;-70
2023/07/15 11:16:45;;;;;;;2.17;1.60;;;;;;;;;;6334963;28;20242;-71
2023/07/15 11:19:49;;;;;;;1.60;1.50;;;;;;;;;;6335419;28;20242;-70
2023/07/15 11:22:54;;;;;;;1.40;1.40;;;;;;;;;;6334971;28;20242;-71
2023/07/15 11:26:07;;;;;;;3.17;1.63;;;;;;;;;;6335216;28;20230;-70
2023/07/15 11:29:15;;;;;;;1.85;1.40;;;;;;;;;;6335038;28;20238;-71
2023/07/15 11:32:19;;;;;;;1.50;1.50;;;;;;;;;;6316475;28;20286;-71
2023/07/15 11:35:24;;;;;;;4.88;1.73;;;;;;;;;;6334789;28;20301;-71
2023/07/15 11:38:31;;;;;;;2.17;1.45;;;;;;;;;;6316619;28;20285;-72
2023/07/15 11:41:37;;;;;;;2.58;1.50;;;;;;;;;;6336166;28;20240;-71
2023/07/15 11:44:42;;;;;;;1.88;1.88;;;;;;;;;;6335031;28;20238;-69
2023/07/15 11:47:46;;;;;;;1.90;1.83;;;;;;;;;;6334706;28;20491;-70
2023/07/15 11:50:50;;;;;;;2.80;1.67;;;;;;;;;;6335022;28;20242;-72
2023/07/15 11:53:55;;;;;;;2.25;1.65;;;;;;;;;;6334688;28;20265;-70
2023/07/15 11:57:01;;;;;;;1.65;1.52;;;;;;;;;;6316780;28;20270;-72
2023/07/15 12:00:05;;;;;;;4.22;1.70;;;;;;;;;;6334657;28;20258;-72
2023/07/15 12:03:09;;;;;;;1.17;1.13;;;;;;;;;;6343525;28;20250;-71
2023/07/15 12:06:15;;;;;;;1.67;1.67;;;;;;;;;;6334743;28;20238;-70
2023/07/15 12:09:19;;;;;;;1.73;1.60;;;;;;;;;;6312578;28;20476;-70
2023/07/15 12:12:25;;;;;;;1.67;1.45;;;;;;;;;;6313631;28;20239;-70
2023/07/15 12:15:29;;;;;;;1.48;1.48;;;;;;;;;;6314081;28;20242;-71
2023/07/15 12:18:33;;;;;;;2.30;1.58;;;;;;;;;;6330154;28;20290;-72
2023/07/15 12:21:38;;;;;;;1.30;1.30;;;;;;;;;;6314345;28;20242;-71
2023/07/15 12:24:42;;;;;;;1.67;1.67;;;;;;;;;;6313992;28;20261;-72
2023/07/15 12:27:48;;;;;;;1.60;1.60;;;;;;;;;;6314406;28;20259;-71
2023/07/15 12:30:52;;;;;;;1.73;1.55;;;;;;;;;;6314207;28;20244;-72
2023/07/15 12:33:56;;;;;;;1.67;1.67;;;;;;;;;;6314054;28;20371;-71
2023/07/15 12:37:01;;;;;;;1.55;1.55;;;;;;;;;;6313934;28;20290;-71
2023/07/15 12:40:05;;;;;;;1.92;1.77;;;;;;;;;;6313354;28;20446;-72
2023/07/15 12:43:11;;;;;;;2.83;1.80;;;;;;;;;;6313156;28;20536;-71
2023/07/15 12:46:15;;;;;;;1.50;1.50;;;;;;;;;;6313122;28;20247;-71
2023/07/15 12:49:20;;;;;;;3.13;1.48;;;;;;;;;;6313335;28;20504;-71
2023/07/15 12:52:24;;;;;;;1.60;1.50;;;;;;;;;;6312912;28;20247;-73
2023/07/15 12:55:28;;;;;;;1.50;1.50;;;;;;;;;;6313075;28;20247;-72
2023/07/15 12:58:34;;;;;;;2.08;1.55;;;;;;;;;;6294573;28;20290;-71
2023/07/15 13:01:42;;;;;;;1.52;1.52;;;;;;;;;;6312496;28;20235;-71
2023/07/15 13:04:46;;;;;;;1.50;1.50;;;;;;;;;;6312889;28;20235;-70
2023/07/15 13:07:50;;;;;;;1.75;1.50;;;;;;;;;;6325583;28;20238;-71
2023/07/15 13:10:54;;;;;;;1.92;1.70;;;;;;;;;;6338058;28;20242;-71
2023/07/15 13:14:00;;;;;;;1.60;1.60;;;;;;;;;;6337830;28;20235;-71
2023/07/15 13:17:04;;;;;;;1.52;1.52;;;;;;;;;;6337679;28;20422;-72
2023/07/15 13:20:10;;;;;;;1.50;1.50;;;;;;;;;;6336809;28;20550;-71
2023/07/15 13:23:14;;;;;;;1.63;1.52;;;;;;;;;;6337638;28;20243;-70
2023/07/15 13:26:18;;;;;;;1.60;1.50;;;;;;;;;;6337395;28;20238;-71
2023/07/15 13:29:24;;;;;;;1.80;1.70;;;;;;;;;;6337571;28;20376;-72
2023/07/15 13:32:28;;;;;;;1.67;1.35;;;;;;;;;;6337180;28;20242;-71
2023/07/15 13:35:32;;;;;;;1.63;1.60;;;;;;;;;;6337295;28;20457;-71
2023/07/15 13:38:37;;;;;;;1.83;1.73;;;;;;;;;;6337506;28;20262;-71
2023/07/15 13:41:41;;;;;;;2.95;1.60;;;;;;;;;;6318979;28;20462;-71
2023/07/15 13:44:47;;;;;;;1.45;1.40;;;;;;;;;;6337272;28;20233;-72
2023/07/15 13:47:52;;;;;;;2.38;1.70;;;;;;;;;;6337196;28;20243;-71
2023/07/15 13:50:56;;;;;;;1.60;1.60;;;;;;;;;;6337175;28;20234;-72
2023/07/15 13:54:00;;;;;;;3.17;1.92;;;;;;;;;;6337226;28;20238;-72
2023/07/15 13:57:05;;;;;;;2.40;1.60;;;;;;;;;;6336751;28;20243;-72
2023/07/15 14:00:11;;;;;;;1.50;1.50;;;;;;;;;;6337071;28;20263;-71
2023/07/15 14:03:18;;;;;;;2.58;1.50;;;;;;;;;;6345635;28;20266;-71
2023/07/15 14:06:23;;;;;;;3.63;1.60;;;;;;;;;;6336781;28;20247;-71
2023/07/15 14:09:27;;;;;;;3.08;2.10;;;;;;;;;;6338146;28;20239;-71
2023/07/15 14:12:32;;;;;;;2.42;1.83;;;;;;;;;;6336436;28;20237;-71
2023/07/15 14:15:36;;;;;;;;;;;;;;;;;;6336888;28;20099;-73
2023/07/15 14:18:39;;;;;;;;;;;;;;;;;;6336702;28;19978;-72
2023/07/15 14:21:43;;;;;;;;;;;;;;;;;;6336796;28;19979;-72
2023/07/15 14:24:47;;;;;;;;;;;;;;;;;;6336636;28;20036;-71
2023/07/15 14:27:51;;;;;;;;;;;;;;;;;;6336511;28;20167;-71
2023/07/15 14:30:54;;;;;;;;;;;;;;;;;;6335912;28;19975;-69
2023/07/15 14:33:58;;;;;;;;;;;;;;;;;;6335775;28;19983;-71
2023/07/15 14:37:02;;;;;;;;;;;;;;;;;;6336328;28;19971;-71
2023/07/15 14:40:06;;;;;;;;;;;;;;;;;;6335829;28;19983;-71
2023/07/15 14:43:10;;;;;;;;;;;;;;;;;;6336175;28;19983;-71
2023/07/15 14:46:14;;;;;;;;;;;;;;;;;;6336156;28;19978;-71
2023/07/15 14:49:18;;;;;;;;;;;;;;;;;;6336485;28;19979;-72
2023/07/15 14:52:22;;;;;;;;;;;;;;;;;;6336441;28;20234;-72
2023/07/15 14:55:26;;;;;;;;;;;;;;;;;;6336309;28;19987;-71
2023/07/15 14:58:29;;;;;;;;;;;;;;;;;;6335986;28;20251;-73
2023/07/15 15:01:34;;;;;;;;;;;;;;;;;;6336342;28;19986;-71
2023/07/15 15:04:37;;;;;;;;;;;;;;;;;;6336367;28;20171;-71
2023/07/15 15:07:41;;;;;;;;;;;;;;;;;;6335839;28;20001;-70
2023/07/15 15:10:45;;;;;;;;;;;;;;;;;;6336165;28;19986;-71
2023/07/15 15:13:49;;;;;;;;;;;;;;;;;;6336257;28;19983;-70
2023/07/15 15:16:53;;;;;;;;;;;;;;;;;;6335948;28;20189;-71
2023/07/15 15:19:57;;;;;;;;;;;;;;;;;;6336029;28;19987;-75
2023/07/15 15:23:00;;;;;;;;;;;;;;;;;;6335895;28;19974;-71
2023/07/15 15:26:04;;;;;;;;;;;;;;;;;;6335806;28;19979;-70
2023/07/15 15:29:08;;;;;;;;;;;;;;;;;;6336083;28;19983;-70
2023/07/15 15:32:12;;;;;;;;;;;;;;;;;;6335613;28;20249;-70
2023/07/15 15:35:16;;;;;;;;;;;;;;;;;;6335562;28;19983;-70
2023/07/15 15:38:19;;;;;;;;;;;;;;;;;;6335661;28;19979;-71
2023/07/15 15:41:23;;;;;;;;;;;;;;;;;;6335415;28;20147;-71
2023/07/15 15:44:27;;;;;;;;;;;;;;;;;;6339314;28;19988;-70
2023/07/15 15:47:31;;;;;;;;;;;;;;;;;;6340249;28;20177;-71
2023/07/15 15:50:35;;;;;;;;;;;;;;;;;;6340617;28;19982;-71
2023/07/15 15:53:39;;;;;;;;;;;;;;;;;;6340716;28;19988;-71
2023/07/15 15:56:43;;;;;;;;;;;;;;;;;;6340188;28;19983;-71
2023/07/15 15:59:46;;;;;;;;;;;;;;;;;;6339963;28;20275;-71
2023/07/15 16:02:50;;;;;;;;;;;;;;;;;;6340007;28;19978;-70
2023/07/15 16:05:54;;;;;;;;;;;;;;;;;;6340596;28;20161;-69
2023/07/15 16:08:58;;;;;;;;;;;;;;;;;;6340073;28;19975;-70
2023/07/15 16:12:02;;;;;;;;;;;;;;;;;;6340156;28;19984;-71
2023/07/15 16:15:06;;;;;;;;;;;;;;;;;;6340370;28;19983;-71
2023/07/15 16:18:10;;;;;;;;;;;;;;;;;;6340208;28;19987;-71
2023/07/15 16:21:14;;;;;;;;;;;;;;;;;;6339617;28;19983;-71
2023/07/15 16:24:18;;;;;;;;;;;;;;;;;;6339660;28;19984;-71
2023/07/15 16:27:22;;;;;;;;;;;;;;;;;;6340296;28;19982;-70
2023/07/15 16:30:25;;;;;;;;;;;;;;;;;;6339660;28;19979;-71
2023/07/15 16:33:29;;;;;;;;;;;;;;;;;;6339424;28;19983;-72
2023/07/15 16:36:33;;;;;;;;;;;;;;;;;;6340153;28;19972;-72
2023/07/15 16:39:37;;;;;;;;;;;;;;;;;;6354522;28;20235;-71
2023/07/15 16:42:41;;;;;;;;;;;;;;;;;;6339369;28;19979;-72
2023/07/15 16:45:44;;;;;;;;;;;;;;;;;;6339300;28;20272;-71
2023/07/15 16:48:48;;;;;;;;;;;;;;;;;;6339449;28;19984;-72
2023/07/15 16:51:52;;;;;;;;;;;;;;;;;;6339396;28;19985;-71
2023/07/15 16:54:57;;;;;;;;;;;;;;;;;;6338165;28;19999;-73
2023/07/15 16:58:01;;;;;;;;;;;;;;;;;;6339208;28;20000;-72
2023/07/15 17:01:05;;;;;;;;;;;;;;;;;;6338812;28;20170;-72
2023/07/15 17:04:09;;;;;;;;;;;;;;;;;;6339371;28;19982;-71
2023/07/15 17:07:12;;;;;;;;;;;;;;;;;;6338775;28;19978;-72
2023/07/15 17:10:16;;;;;;;;;;;;;;;;;;6338682;28;19978;-71
2023/07/15 17:13:20;;;;;;;;;;;;;;;;;;6339037;28;20002;-71
2023/07/15 17:16:24;;;;;;;;;;;;;;;;;;6338624;28;19982;-70
2023/07/15 17:19:28;;;;;;;;;;;;;;;;;;6338456;28;19983;-73
2023/07/15 17:22:32;;;;;;;;;;;;;;;;;;6338591;28;20046;-73
2023/07/15 17:25:36;;;;;;;;;;;;;;;;;;6338199;28;20165;-71
2023/07/15 17:28:40;;;;;;;;;;;;;;;;;;6338314;28;20179;-70
2023/07/15 17:31:44;;;;;;;;;;;;;;;;;;6338520;28;19979;-72
2023/07/15 17:34:48;;;;;;;;;;;;;;;;;;6337870;28;19984;-71
2023/07/15 17:37:52;;;;;;;;;;;;;;;;;;6320190;28;19984;-73
2023/07/15 17:40:55;;;;;;;;;;;;;;;;;;6338221;28;19975;-72
2023/07/15 17:43:59;;;;;;;;;;;;;;;;;;6338348;28;19979;-72
2023/07/15 17:47:03;;;;;;;;;;;;;;;;;;6337827;28;19978;-73
2023/07/15 17:50:07;;;;;;;;;;;;;;;;;;6337879;28;20156;-73
2023/07/15 17:53:11;;;;;;;;;;;;;;;;;;6338209;28;19999;-72
2023/07/15 17:56:17;;;;;;;;;;;;;;;;;;6337608;28;19979;-74
2023/07/15 17:59:21;;;;;;;;;;;;;;;;;;6353093;28;20258;-71
2023/07/15 18:02:25;;;;;;;;;;;;;;;;;;6337413;28;20241;-72
2023/07/15 18:05:29;;;;;;;;;;;;;;;;;;6337476;28;19979;-72
2023/07/15 18:08:33;;;;;;;;;;;;;;;;;;6336989;28;19974;-72
2023/07/15 18:11:36;;;;;;;;;;;;;;;;;;6337092;28;20158;-71
2023/07/15 18:14:40;;;;;;;;;;;;;;;;;;6337231;28;20003;-72
2023/07/15 18:17:44;;;;;;;;;;;;;;;;;;6337413;28;20271;-72
2023/07/15 18:20:48;;;;;;;;;;;;;;;;;;6337010;28;20153;-72
2023/07/15 18:23:52;;;;;;;;;;;;;;;;;;6337725;28;19986;-73
2023/07/15 18:26:56;;;;;;;;;;;;;;;;;;6336876;28;19976;-72
2023/07/15 18:30:02;;;;;;;;;;;;;;;;;;6337210;28;19984;-72
2023/07/15 18:33:06;;;;;;;;;;;;;;;;;;6337407;28;19979;-73
2023/07/15 18:36:13;;;;;;;;;;;;;;;;;;6337122;28;19979;-72
2023/07/15 18:39:17;;;;;;;;;;;;;;;;;;6318351;28;19987;-71
2023/07/15 18:42:20;;;;;;;;;;;;;;;;;;6336779;28;19982;-72
2023/07/15 18:45:24;;;;;;;;;;;;;;;;;;6336333;28;19979;-72
2023/07/15 18:48:28;;;;;;;;;;;;;;;;;;6336745;28;19983;-72
2023/07/15 18:51:32;;;;;;;;;;;;;;;;;;6336551;28;20153;-72
2023/07/15 18:54:36;;;;;;;;;;;;;;;;;;6336675;28;19979;-72
2023/07/15 18:57:40;;;;;;;;;;;;;;;;;;6336676;28;19977;-72
2023/07/15 19:00:43;;;;;;;;;;;;;;;;;;6336521;28;19979;-72